sensor_id;sensor_type;location;lat;lon;timestamp;temperature;humidity
16966;DHT22;8599;47.852;12.070;2024-03-23T00:54:24;10.90;99.90
16966;DHT22;8599;47.852;12.070;2024-03-23T00:56:50;10.80;99.90
16966;DHT22;8599;47.852;12.070;2024-03-23T00:59:16;10.70;99.90
16966;DHT22;8599;47.852;12.070;2024-03-23T01:01:43;10.70;99.90
16966;DHT22;8599;47.852;12.070;2024-03-23T01:04:09;10.60;99.90
16966;DHT22;8599;47.852;12.070;2024-03-23T01:06:36;10.60;99.90
16966;DHT22;8599;47.852;12.070;2024-03-23T01:09:02;10.70;99.90
16966;DHT22;8599;47.852;12.070;2024-03-23T01:11:30;10.60;99.90
16966;DHT22;8599;47.852;12.070;2024-03-23T01:13:56;10.60;99.90
16966;DHT22;8599;47.852;12.070;2024-03-23T01:16:22;10.60;99.90
16966;DHT22;8599;47.852;12.070;2024-03-23T01:18:48;10.60;99.90
16966;DHT22;8599;47.852;12.070;2024-03-23T01:21:15;10.60;99.90
16966;DHT22;8599;47.852;12.070;2024-03-23T01:23:41;10.50;99.90
16966;DHT22;8599;47.852;12.070;2024-03-23T01:26:08;10.50;99.90
16966;DHT22;8599;47.852;12.070;2024-03-23T01:28:35;10.50;99.90
16966;DHT22;8599;47.852;12.070;2024-03-23T01:31:02;10.40;99.90
16966;DHT22;8599;47.852;12.070;2024-03-23T01:33:28;10.40;99.90
16966;DHT22;8599;47.852;12.070;2024-03-23T01:35:55;10.40;99.90
16966;DHT22;8599;47.852;12.070;2024-03-23T01:38:20;10.50;99.90
16966;DHT22;8599;47.852;12.070;2024-03-23T01:40:47;10.40;99.90
16966;DHT22;8599;47.852;12.070;2024-03-23T01:43:13;10.30;99.90
16966;DHT22;8599;47.852;12.070;2024-03-23T01:45:41;10.30;99.90
16966;DHT22;8599;47.852;12.070;2024-03-23T01:48:07;10.20;99.90
16966;DHT22;8599;47.852;12.070;2024-03-23T01:50:34;10.20;99.90
16966;DHT22;8599;47.852;12.070;2024-03-23T01:53:01;10.30;99.90
16966;DHT22;8599;47.852;12.070;2024-03-23T01:55:29;10.20;99.90
16966;DHT22;8599;47.852;12.070;2024-03-23T01:57:56;10.20;99.90
16966;DHT22;8599;47.852;12.070;2024-03-23T02:00:24;10.20;99.90
16966;DHT22;8599;47.852;12.070;2024-03-23T02:02:51;10.30;99.90
16966;DHT22;8599;47.852;12.070;2024-03-23T02:05:18;10.30;99.90
16966;DHT22;8599;47.852;12.070;2024-03-23T02:07:44;10.30;99.90
16966;DHT22;8599;47.852;12.070;2024-03-23T02:10:11;10.20;99.90
16966;DHT22;8599;47.852;12.070;2024-03-23T02:12:38;10.20;99.90
16966;DHT22;8599;47.852;12.070;2024-03-23T02:15:06;10.20;99.90
16966;DHT22;8599;47.852;12.070;2024-03-23T02:17:34;10.20;99.90
16966;DHT22;8599;47.852;12.070;2024-03-23T02:20:03;10.20;99.90
16966;DHT22;8599;47.852;12.070;2024-03-23T02:22:36;10.20;99.90
16966;DHT22;8599;47.852;12.070;2024-03-23T02:25:05;10.20;99.90
16966;DHT22;8599;47.852;12.070;2024-03-23T02:27:31;10.20;99.90
16966;DHT22;8599;47.852;12.070;2024-03-23T02:29:58;10.20;99.90
16966;DHT22;8599;47.852;12.070;2024-03-23T02:32:24;10.20;99.90
16966;DHT22;8599;47.852;12.070;2024-03-23T02:34:51;9.80;99.90
16966;DHT22;8599;47.852;12.070;2024-03-23T02:37:17;10.00;99.90
16966;DHT22;8599;47.852;12.070;2024-03-23T02:39:44;10.10;99.90
16966;DHT22;8599;47.852;12.070;2024-03-23T02:42:11;10.10;99.90
16966;DHT22;8599;47.852;12.070;2024-03-23T02:44:38;10.00;99.90
16966;DHT22;8599;47.852;12.070;2024-03-23T02:47:04;10.00;99.90
16966;DHT22;8599;47.852;12.070;2024-03-23T02:49:31;10.10;99.90
16966;DHT22;8599;47.852;12.070;2024-03-23T02:51:56;10.10;99.90
16966;DHT22;8599;47.852;12.070;2024-03-23T02:54:23;10.10;99.90
16966;DHT22;8599;47.852;12.070;2024-03-23T02:56:49;10.20;99.90
16966;DHT22;8599;47.852;12.070;2024-03-23T02:59:17;10.20;99.90
16966;DHT22;8599;47.852;12.070;2024-03-23T03:01:43;10.20;99.90
16966;DHT22;8599;47.852;12.070;2024-03-23T03:04:10;10.20;99.90
16966;DHT22;8599;47.852;12.070;2024-03-23T03:06:35;10.20;99.90
16966;DHT22;8599;47.852;12.070;2024-03-23T03:09:03;10.20;99.90
16966;DHT22;8599;47.852;12.070;2024-03-23T03:11:30;10.20;99.90
16966;DHT22;8599;47.852;12.070;2024-03-23T03:13:57;10.10;99.90
16966;DHT22;8599;47.852;12.070;2024-03-23T03:16:27;10.10;99.90
16966;DHT22;8599;47.852;12.070;2024-03-23T03:18:53;10.00;99.90
16966;DHT22;8599;47.852;12.070;2024-03-23T03:21:19;10.00;99.90
16966;DHT22;8599;47.852;12.070;2024-03-23T03:23:46;9.90;99.90
16966;DHT22;8599;47.852;12.070;2024-03-23T03:26:15;9.90;99.90
16966;DHT22;8599;47.852;12.070;2024-03-23T03:28:43;10.10;99.90
16966;DHT22;8599;47.852;12.070;2024-03-23T03:31:09;10.30;99.90
16966;DHT22;8599;47.852;12.070;2024-03-23T03:33:37;10.30;99.90
16966;DHT22;8599;47.852;12.070;2024-03-23T03:36:03;10.40;99.90
16966;DHT22;8599;47.852;12.070;2024-03-23T03:38:30;10.30;99.90
16966;DHT22;8599;47.852;12.070;2024-03-23T03:40:56;10.30;99.90
16966;DHT22;8599;47.852;12.070;2024-03-23T03:43:24;10.20;99.90
16966;DHT22;8599;47.852;12.070;2024-03-23T03:45:53;10.40;99.90
16966;DHT22;8599;47.852;12.070;2024-03-23T03:48:20;10.40;99.90
16966;DHT22;8599;47.852;12.070;2024-03-23T03:50:47;10.40;99.90
16966;DHT22;8599;47.852;12.070;2024-03-23T03:53:14;10.30;99.90
16966;DHT22;8599;47.852;12.070;2024-03-23T03:55:39;10.30;99.90
16966;DHT22;8599;47.852;12.070;2024-03-23T03:58:06;10.20;99.90
16966;DHT22;8599;47.852;12.070;2024-03-23T04:00:32;10.20;99.90
16966;DHT22;8599;47.852;12.070;2024-03-23T04:02:59;10.30;99.90
16966;DHT22;8599;47.852;12.070;2024-03-23T04:05:25;10.30;99.90
16966;DHT22;8599;47.852;12.070;2024-03-23T04:07:53;10.30;99.90
16966;DHT22;8599;47.852;12.070;2024-03-23T04:10:19;10.30;99.90
16966;DHT22;8599;47.852;12.070;2024-03-23T04:12:47;10.30;99.90
16966;DHT22;8599;47.852;12.070;2024-03-23T04:15:13;10.40;99.90
16966;DHT22;8599;47.852;12.070;2024-03-23T04:17:40;10.20;99.90
16966;DHT22;8599;47.852;12.070;2024-03-23T04:20:09;10.10;99.90
16966;DHT22;8599;47.852;12.070;2024-03-23T04:22:36;10.10;99.90
16966;DHT22;8599;47.852;12.070;2024-03-23T04:25:04;10.10;99.90
16966;DHT22;8599;47.852;12.070;2024-03-23T04:27:32;10.00;99.90
16966;DHT22;8599;47.852;12.070;2024-03-23T04:29:58;10.10;99.90
16966;DHT22;8599;47.852;12.070;2024-03-23T04:32:26;10.00;99.90
16966;DHT22;8599;47.852;12.070;2024-03-23T04:34:53;10.10;99.90
16966;DHT22;8599;47.852;12.070;2024-03-23T04:37:20;10.00;99.90
16966;DHT22;8599;47.852;12.070;2024-03-23T04:39:46;10.00;99.90
16966;DHT22;8599;47.852;12.070;2024-03-23T04:42:16;9.90;99.90
16966;DHT22;8599;47.852;12.070;2024-03-23T04:44:42;9.90;99.90
16966;DHT22;8599;47.852;12.070;2024-03-23T04:47:10;9.70;99.90
16966;DHT22;8599;47.852;12.070;2024-03-23T04:49:37;9.70;99.90
16966;DHT22;8599;47.852;12.070;2024-03-23T04:52:04;9.60;99.90
16966;DHT22;8599;47.852;12.070;2024-03-23T04:54:32;9.70;99.90
16966;DHT22;8599;47.852;12.070;2024-03-23T04:56:59;9.80;99.90
16966;DHT22;8599;47.852;12.070;2024-03-23T04:59:26;9.70;99.90
16966;DHT22;8599;47.852;12.070;2024-03-23T05:01:53;9.70;99.90
16966;DHT22;8599;47.852;12.070;2024-03-23T05:04:19;9.70;99.90
16966;DHT22;8599;47.852;12.070;2024-03-23T05:06:46;9.70;99.90
16966;DHT22;8599;47.852;12.070;2024-03-23T05:09:11;9.70;99.90
16966;DHT22;8599;47.852;12.070;2024-03-23T05:11:38;9.70;99.90
16966;DHT22;8599;47.852;12.070;2024-03-23T05:14:04;9.70;99.90
16966;DHT22;8599;47.852;12.070;2024-03-23T05:16:33;9.70;99.90
16966;DHT22;8599;47.852;12.070;2024-03-23T05:18:58;9.70;99.90
16966;DHT22;8599;47.852;12.070;2024-03-23T05:21:26;9.80;99.90
16966;DHT22;8599;47.852;12.070;2024-03-23T05:23:53;9.90;99.90
16966;DHT22;8599;47.852;12.070;2024-03-23T05:26:22;9.80;99.90
16966;DHT22;8599;47.852;12.070;2024-03-23T05:28:48;9.70;99.90
16966;DHT22;8599;47.852;12.070;2024-03-23T05:31:22;9.80;99.90
16966;DHT22;8599;47.852;12.070;2024-03-23T05:33:50;9.80;99.90
16966;DHT22;8599;47.852;12.070;2024-03-23T05:36:17;9.80;99.90
16966;DHT22;8599;47.852;12.070;2024-03-23T05:38:43;9.80;99.90
16966;DHT22;8599;47.852;12.070;2024-03-23T05:41:10;9.80;99.90
16966;DHT22;8599;47.852;12.070;2024-03-23T05:43:36;9.80;99.90
16966;DHT22;8599;47.852;12.070;2024-03-23T05:46:03;9.80;99.90
16966;DHT22;8599;47.852;12.070;2024-03-23T05:48:30;9.90;99.90
16966;DHT22;8599;47.852;12.070;2024-03-23T05:50:58;9.90;99.90
16966;DHT22;8599;47.852;12.070;2024-03-23T05:53:24;10.10;99.90
16966;DHT22;8599;47.852;12.070;2024-03-23T05:55:59;10.10;99.90
16966;DHT22;8599;47.852;12.070;2024-03-23T05:58:25;10.20;99.90
16966;DHT22;8599;47.852;12.070;2024-03-23T06:00:57;10.40;99.90
16966;DHT22;8599;47.852;12.070;2024-03-23T06:03:23;10.30;99.90
16966;DHT22;8599;47.852;12.070;2024-03-23T06:05:50;10.30;99.90
16966;DHT22;8599;47.852;12.070;2024-03-23T06:08:17;10.30;99.90
16966;DHT22;8599;47.852;12.070;2024-03-23T06:10:45;10.20;99.90
16966;DHT22;8599;47.852;12.070;2024-03-23T06:13:10;10.30;99.90
16966;DHT22;8599;47.852;12.070;2024-03-23T06:15:37;10.20;99.90
16966;DHT22;8599;47.852;12.070;2024-03-23T06:18:03;10.20;99.90
16966;DHT22;8599;47.852;12.070;2024-03-23T06:20:32;10.30;99.90
16966;DHT22;8599;47.852;12.070;2024-03-23T06:22:58;10.30;99.90
16966;DHT22;8599;47.852;12.070;2024-03-23T06:25:26;10.40;99.90
16966;DHT22;8599;47.852;12.070;2024-03-23T06:27:52;10.50;99.90
16966;DHT22;8599;47.852;12.070;2024-03-23T06:30:18;10.60;99.90
16966;DHT22;8599;47.852;12.070;2024-03-23T06:32:44;10.60;99.90
16966;DHT22;8599;47.852;12.070;2024-03-23T06:35:11;10.80;99.90
16966;DHT22;8599;47.852;12.070;2024-03-23T06:37:37;10.80;99.90
16966;DHT22;8599;47.852;12.070;2024-03-23T06:40:07;10.80;99.90
16966;DHT22;8599;47.852;12.070;2024-03-23T06:42:36;11.00;99.90
16966;DHT22;8599;47.852;12.070;2024-03-23T06:45:04;11.00;99.90
16966;DHT22;8599;47.852;12.070;2024-03-23T06:47:30;11.20;99.90
16966;DHT22;8599;47.852;12.070;2024-03-23T06:49:57;11.20;99.90
16966;DHT22;8599;47.852;12.070;2024-03-23T06:52:23;11.20;99.90
16966;DHT22;8599;47.852;12.070;2024-03-23T06:54:49;11.20;99.90
16966;DHT22;8599;47.852;12.070;2024-03-23T06:57:15;11.20;99.90
16966;DHT22;8599;47.852;12.070;2024-03-23T06:59:43;11.50;99.90
16966;DHT22;8599;47.852;12.070;2024-03-23T07:02:09;11.60;99.90
16966;DHT22;8599;47.852;12.070;2024-03-23T07:04:36;11.50;99.90
16966;DHT22;8599;47.852;12.070;2024-03-23T07:07:02;11.50;99.90
16966;DHT22;8599;47.852;12.070;2024-03-23T07:09:29;11.50;99.90
16966;DHT22;8599;47.852;12.070;2024-03-23T07:11:55;11.60;99.90
16966;DHT22;8599;47.852;12.070;2024-03-23T07:14:23;11.60;99.90
16966;DHT22;8599;47.852;12.070;2024-03-23T07:16:50;11.60;99.90
16966;DHT22;8599;47.852;12.070;2024-03-23T07:19:17;11.60;99.90
16966;DHT22;8599;47.852;12.070;2024-03-23T07:21:43;11.60;99.90
16966;DHT22;8599;47.852;12.070;2024-03-23T07:24:11;11.60;99.90
16966;DHT22;8599;47.852;12.070;2024-03-23T07:26:37;11.70;99.90
16966;DHT22;8599;47.852;12.070;2024-03-23T07:29:05;11.70;99.90
16966;DHT22;8599;47.852;12.070;2024-03-23T07:31:31;11.70;99.90
16966;DHT22;8599;47.852;12.070;2024-03-23T07:33:59;11.70;99.90
16966;DHT22;8599;47.852;12.070;2024-03-23T07:36:25;11.80;99.90
16966;DHT22;8599;47.852;12.070;2024-03-23T07:38:52;11.90;99.90
16966;DHT22;8599;47.852;12.070;2024-03-23T07:41:20;11.90;99.90
16966;DHT22;8599;47.852;12.070;2024-03-23T07:43:47;11.90;99.90
16966;DHT22;8599;47.852;12.070;2024-03-23T07:46:14;12.00;99.90
16966;DHT22;8599;47.852;12.070;2024-03-23T07:48:41;12.10;99.90
16966;DHT22;8599;47.852;12.070;2024-03-23T07:51:14;12.10;99.90
16966;DHT22;8599;47.852;12.070;2024-03-23T07:53:43;12.10;99.90
16966;DHT22;8599;47.852;12.070;2024-03-23T07:56:09;12.20;99.90
16966;DHT22;8599;47.852;12.070;2024-03-23T07:58:37;12.20;99.90
16966;DHT22;8599;47.852;12.070;2024-03-23T08:01:06;12.30;99.90
16966;DHT22;8599;47.852;12.070;2024-03-23T08:03:34;12.40;99.90
16966;DHT22;8599;47.852;12.070;2024-03-23T08:06:07;12.40;99.90
16966;DHT22;8599;47.852;12.070;2024-03-23T08:08:35;12.60;99.90
16966;DHT22;8599;47.852;12.070;2024-03-23T08:11:01;12.70;99.90
16966;DHT22;8599;47.852;12.070;2024-03-23T08:13:28;12.90;99.90
16966;DHT22;8599;47.852;12.070;2024-03-23T08:15:56;13.00;99.90
16966;DHT22;8599;47.852;12.070;2024-03-23T08:18:23;13.20;99.90
16966;DHT22;8599;47.852;12.070;2024-03-23T08:20:55;13.30;99.90
16966;DHT22;8599;47.852;12.070;2024-03-23T08:23:22;13.30;99.90
16966;DHT22;8599;47.852;12.070;2024-03-23T08:25:50;13.50;99.90
16966;DHT22;8599;47.852;12.070;2024-03-23T08:28:16;13.60;99.90
16966;DHT22;8599;47.852;12.070;2024-03-23T08:30:43;13.50;99.90
16966;DHT22;8599;47.852;12.070;2024-03-23T08:33:09;13.60;99.90
16966;DHT22;8599;47.852;12.070;2024-03-23T08:35:35;13.80;99.90
16966;DHT22;8599;47.852;12.070;2024-03-23T08:38:03;14.10;99.90
16966;DHT22;8599;47.852;12.070;2024-03-23T08:40:29;14.20;99.90
16966;DHT22;8599;47.852;12.070;2024-03-23T08:42:57;14.40;99.90
16966;DHT22;8599;47.852;12.070;2024-03-23T08:45:24;14.80;99.90
16966;DHT22;8599;47.852;12.070;2024-03-23T08:47:50;15.30;99.90
16966;DHT22;8599;47.852;12.070;2024-03-23T08:50:16;15.30;99.90
16966;DHT22;8599;47.852;12.070;2024-03-23T08:52:43;15.10;99.90
16966;DHT22;8599;47.852;12.070;2024-03-23T08:55:09;14.60;99.90
16966;DHT22;8599;47.852;12.070;2024-03-23T08:57:36;14.50;99.90
16966;DHT22;8599;47.852;12.070;2024-03-23T09:00:04;14.40;99.90
16966;DHT22;8599;47.852;12.070;2024-03-23T09:02:31;14.40;99.90
16966;DHT22;8599;47.852;12.070;2024-03-23T09:04:57;14.20;99.90
16966;DHT22;8599;47.852;12.070;2024-03-23T09:07:29;14.00;99.90
16966;DHT22;8599;47.852;12.070;2024-03-23T09:09:55;14.00;99.90
16966;DHT22;8599;47.852;12.070;2024-03-23T09:12:22;13.90;99.90
16966;DHT22;8599;47.852;12.070;2024-03-23T09:14:49;13.90;99.90
16966;DHT22;8599;47.852;12.070;2024-03-23T09:17:17;14.00;99.90
16966;DHT22;8599;47.852;12.070;2024-03-23T09:19:43;14.00;99.90
16966;DHT22;8599;47.852;12.070;2024-03-23T09:22:10;13.90;99.90
16966;DHT22;8599;47.852;12.070;2024-03-23T09:24:36;13.90;99.90
16966;DHT22;8599;47.852;12.070;2024-03-23T09:27:03;13.80;99.90
16966;DHT22;8599;47.852;12.070;2024-03-23T09:29:29;13.60;99.90
16966;DHT22;8599;47.852;12.070;2024-03-23T09:31:56;13.50;99.90
16966;DHT22;8599;47.852;12.070;2024-03-23T09:34:23;13.30;99.90
16966;DHT22;8599;47.852;12.070;2024-03-23T09:36:51;13.10;99.90
16966;DHT22;8599;47.852;12.070;2024-03-23T09:39:17;12.80;99.90
16966;DHT22;8599;47.852;12.070;2024-03-23T09:41:44;12.70;99.90
16966;DHT22;8599;47.852;12.070;2024-03-23T09:44:10;12.60;99.90
16966;DHT22;8599;47.852;12.070;2024-03-23T09:46:38;12.50;99.90
16966;DHT22;8599;47.852;12.070;2024-03-23T09:49:05;12.30;99.90
16966;DHT22;8599;47.852;12.070;2024-03-23T09:51:36;11.80;99.90
16966;DHT22;8599;47.852;12.070;2024-03-23T09:54:02;11.40;99.90
16966;DHT22;8599;47.852;12.070;2024-03-23T09:56:29;11.30;99.90
16966;DHT22;8599;47.852;12.070;2024-03-23T09:59:00;11.00;99.90
16966;DHT22;8599;47.852;12.070;2024-03-23T10:01:29;10.60;99.90
16966;DHT22;8599;47.852;12.070;2024-03-23T10:03:55;10.40;99.90
16966;DHT22;8599;47.852;12.070;2024-03-23T10:06:22;10.30;99.90
16966;DHT22;8599;47.852;12.070;2024-03-23T10:08:51;10.20;99.90
16966;DHT22;8599;47.852;12.070;2024-03-23T10:11:20;10.00;99.90
16966;DHT22;8599;47.852;12.070;2024-03-23T10:13:47;9.80;99.90
16966;DHT22;8599;47.852;12.070;2024-03-23T10:16:21;9.80;99.90
16966;DHT22;8599;47.852;12.070;2024-03-23T10:18:48;9.90;99.90
16966;DHT22;8599;47.852;12.070;2024-03-23T10:21:16;9.80;99.90
16966;DHT22;8599;47.852;12.070;2024-03-23T10:23:42;9.80;99.90
16966;DHT22;8599;47.852;12.070;2024-03-23T10:26:15;9.80;99.90
16966;DHT22;8599;47.852;12.070;2024-03-23T10:28:55;9.60;99.90
16966;DHT22;8599;47.852;12.070;2024-03-23T10:31:25;9.40;99.90
16966;DHT22;8599;47.852;12.070;2024-03-23T10:33:51;8.90;99.90
16966;DHT22;8599;47.852;12.070;2024-03-23T10:36:20;8.70;99.90
16966;DHT22;8599;47.852;12.070;2024-03-23T10:38:46;8.50;99.90
16966;DHT22;8599;47.852;12.070;2024-03-23T10:41:15;8.60;99.90
16966;DHT22;8599;47.852;12.070;2024-03-23T10:43:43;8.60;99.90
16966;DHT22;8599;47.852;12.070;2024-03-23T10:46:08;8.60;99.90
16966;DHT22;8599;47.852;12.070;2024-03-23T10:48:35;8.60;99.90
16966;DHT22;8599;47.852;12.070;2024-03-23T10:51:01;8.50;99.90
16966;DHT22;8599;47.852;12.070;2024-03-23T10:53:29;8.40;99.90
16966;DHT22;8599;47.852;12.070;2024-03-23T10:55:55;8.40;99.90
16966;DHT22;8599;47.852;12.070;2024-03-23T10:58:27;8.40;99.90
16966;DHT22;8599;47.852;12.070;2024-03-23T11:00:54;8.50;99.90
16966;DHT22;8599;47.852;12.070;2024-03-23T11:03:31;8.50;99.90
16966;DHT22;8599;47.852;12.070;2024-03-23T11:05:57;8.50;99.90
16966;DHT22;8599;47.852;12.070;2024-03-23T11:08:31;8.40;99.90
16966;DHT22;8599;47.852;12.070;2024-03-23T11:11:12;8.20;99.90
16966;DHT22;8599;47.852;12.070;2024-03-23T11:13:40;8.20;99.90
16966;DHT22;8599;47.852;12.070;2024-03-23T11:16:14;8.20;99.90
16966;DHT22;8599;47.852;12.070;2024-03-23T11:18:41;8.20;99.90
16966;DHT22;8599;47.852;12.070;2024-03-23T11:21:07;8.10;99.90
16966;DHT22;8599;47.852;12.070;2024-03-23T11:23:34;8.20;99.90
16966;DHT22;8599;47.852;12.070;2024-03-23T11:26:00;8.20;99.90
16966;DHT22;8599;47.852;12.070;2024-03-23T11:28:27;8.30;99.90
16966;DHT22;8599;47.852;12.070;2024-03-23T11:30:54;8.30;99.90
16966;DHT22;8599;47.852;12.070;2024-03-23T11:33:21;8.40;99.90
16966;DHT22;8599;47.852;12.070;2024-03-23T11:35:47;8.40;99.90
16966;DHT22;8599;47.852;12.070;2024-03-23T11:38:15;8.30;99.90
16966;DHT22;8599;47.852;12.070;2024-03-23T11:40:44;8.20;99.90
16966;DHT22;8599;47.852;12.070;2024-03-23T11:43:12;8.30;99.90
16966;DHT22;8599;47.852;12.070;2024-03-23T11:45:39;8.30;99.90
16966;DHT22;8599;47.852;12.070;2024-03-23T11:48:09;8.30;99.90
16966;DHT22;8599;47.852;12.070;2024-03-23T11:50:37;8.20;99.90
16966;DHT22;8599;47.852;12.070;2024-03-23T11:53:12;8.10;99.90
16966;DHT22;8599;47.852;12.070;2024-03-23T11:55:42;7.90;99.90
16966;DHT22;8599;47.852;12.070;2024-03-23T11:58:10;7.80;99.90
16966;DHT22;8599;47.852;12.070;2024-03-23T12:00:36;7.70;99.90
16966;DHT22;8599;47.852;12.070;2024-03-23T12:03:04;7.60;99.90
16966;DHT22;8599;47.852;12.070;2024-03-23T12:05:32;7.50;99.90
16966;DHT22;8599;47.852;12.070;2024-03-23T12:08:18;7.60;99.90
16966;DHT22;8599;47.852;12.070;2024-03-23T12:10:47;7.60;99.90
16966;DHT22;8599;47.852;12.070;2024-03-23T12:13:19;7.80;99.90
16966;DHT22;8599;47.852;12.070;2024-03-23T12:15:45;7.70;99.90
16966;DHT22;8599;47.852;12.070;2024-03-23T12:18:13;7.80;99.90
16966;DHT22;8599;47.852;12.070;2024-03-23T12:20:40;7.80;99.90
16966;DHT22;8599;47.852;12.070;2024-03-23T12:23:09;7.70;99.90
16966;DHT22;8599;47.852;12.070;2024-03-23T12:25:35;7.70;99.90
16966;DHT22;8599;47.852;12.070;2024-03-23T12:28:02;7.70;99.90
16966;DHT22;8599;47.852;12.070;2024-03-23T12:30:29;7.80;99.90
16966;DHT22;8599;47.852;12.070;2024-03-23T12:32:55;8.00;99.90
16966;DHT22;8599;47.852;12.070;2024-03-23T12:35:22;8.00;99.90
16966;DHT22;8599;47.852;12.070;2024-03-23T12:37:50;7.90;99.90
16966;DHT22;8599;47.852;12.070;2024-03-23T12:40:16;7.90;99.90
16966;DHT22;8599;47.852;12.070;2024-03-23T12:42:43;8.00;99.90
16966;DHT22;8599;47.852;12.070;2024-03-23T12:45:09;8.00;99.90
16966;DHT22;8599;47.852;12.070;2024-03-23T12:47:36;8.10;99.90
16966;DHT22;8599;47.852;12.070;2024-03-23T12:50:02;8.10;99.90
16966;DHT22;8599;47.852;12.070;2024-03-23T12:52:29;8.20;99.90
16966;DHT22;8599;47.852;12.070;2024-03-23T12:54:57;8.20;99.90
16966;DHT22;8599;47.852;12.070;2024-03-23T12:57:24;8.30;99.90
16966;DHT22;8599;47.852;12.070;2024-03-23T12:59:50;8.40;99.90
16966;DHT22;8599;47.852;12.070;2024-03-23T13:02:18;8.50;99.90
16966;DHT22;8599;47.852;12.070;2024-03-23T13:04:45;8.50;99.90
16966;DHT22;8599;47.852;12.070;2024-03-23T13:07:12;8.50;99.90
16966;DHT22;8599;47.852;12.070;2024-03-23T13:09:38;8.40;99.90
16966;DHT22;8599;47.852;12.070;2024-03-23T13:12:07;8.30;99.90
16966;DHT22;8599;47.852;12.070;2024-03-23T13:14:33;8.20;99.90
16966;DHT22;8599;47.852;12.070;2024-03-23T13:17:01;8.30;99.90
16966;DHT22;8599;47.852;12.070;2024-03-23T13:19:27;8.30;99.90
16966;DHT22;8599;47.852;12.070;2024-03-23T13:21:56;8.30;99.90
16966;DHT22;8599;47.852;12.070;2024-03-23T13:24:22;8.30;99.90
16966;DHT22;8599;47.852;12.070;2024-03-23T13:26:50;8.30;99.90
16966;DHT22;8599;47.852;12.070;2024-03-23T13:29:17;8.30;99.90
16966;DHT22;8599;47.852;12.070;2024-03-23T13:31:44;8.30;99.90
16966;DHT22;8599;47.852;12.070;2024-03-23T13:34:10;8.30;99.90
16966;DHT22;8599;47.852;12.070;2024-03-23T13:36:37;8.40;99.90
16966;DHT22;8599;47.852;12.070;2024-03-23T13:39:03;8.50;99.90
16966;DHT22;8599;47.852;12.070;2024-03-23T13:41:32;8.50;99.90
16966;DHT22;8599;47.852;12.070;2024-03-23T13:43:57;8.60;99.90
16966;DHT22;8599;47.852;12.070;2024-03-23T13:46:26;8.60;99.90
16966;DHT22;8599;47.852;12.070;2024-03-23T13:48:51;8.60;99.90
16966;DHT22;8599;47.852;12.070;2024-03-23T13:51:23;8.60;99.90
16966;DHT22;8599;47.852;12.070;2024-03-23T13:53:50;8.60;99.90
16966;DHT22;8599;47.852;12.070;2024-03-23T13:56:16;8.60;99.90
16966;DHT22;8599;47.852;12.070;2024-03-23T13:58:42;8.70;99.90
16966;DHT22;8599;47.852;12.070;2024-03-23T14:01:12;8.60;99.90
16966;DHT22;8599;47.852;12.070;2024-03-23T14:03:40;8.50;99.90
16966;DHT22;8599;47.852;12.070;2024-03-23T14:06:07;8.40;99.90
16966;DHT22;8599;47.852;12.070;2024-03-23T14:08:33;8.50;99.90
16966;DHT22;8599;47.852;12.070;2024-03-23T14:11:02;8.50;99.90
16966;DHT22;8599;47.852;12.070;2024-03-23T14:13:29;8.40;99.90
16966;DHT22;8599;47.852;12.070;2024-03-23T14:15:56;8.20;99.90
16966;DHT22;8599;47.852;12.070;2024-03-23T14:18:22;8.10;99.90
16966;DHT22;8599;47.852;12.070;2024-03-23T14:20:51;7.90;99.90
16966;DHT22;8599;47.852;12.070;2024-03-23T14:23:17;7.90;99.90
16966;DHT22;8599;47.852;12.070;2024-03-23T14:25:44;7.90;99.90
16966;DHT22;8599;47.852;12.070;2024-03-23T14:28:10;7.80;99.90
16966;DHT22;8599;47.852;12.070;2024-03-23T14:30:41;7.80;99.90
16966;DHT22;8599;47.852;12.070;2024-03-23T14:33:07;7.80;99.90
16966;DHT22;8599;47.852;12.070;2024-03-23T14:35:34;7.80;99.90
16966;DHT22;8599;47.852;12.070;2024-03-23T14:38:01;7.80;99.90
16966;DHT22;8599;47.852;12.070;2024-03-23T14:40:28;7.80;99.90
16966;DHT22;8599;47.852;12.070;2024-03-23T14:42:54;7.90;99.90
16966;DHT22;8599;47.852;12.070;2024-03-23T14:45:21;7.90;99.90
16966;DHT22;8599;47.852;12.070;2024-03-23T14:47:47;8.00;99.90
16966;DHT22;8599;47.852;12.070;2024-03-23T14:50:14;8.00;99.90
16966;DHT22;8599;47.852;12.070;2024-03-23T14:52:43;8.00;99.90
16966;DHT22;8599;47.852;12.070;2024-03-23T14:55:12;8.10;99.90
16966;DHT22;8599;47.852;12.070;2024-03-23T14:57:38;8.00;99.90
16966;DHT22;8599;47.852;12.070;2024-03-23T15:02:33;7.90;99.90
16966;DHT22;8599;47.852;12.070;2024-03-23T15:05:00;7.80;99.90
16966;DHT22;8599;47.852;12.070;2024-03-23T15:07:26;7.80;99.90
16966;DHT22;8599;47.852;12.070;2024-03-23T15:09:53;7.90;99.90
16966;DHT22;8599;47.852;12.070;2024-03-23T15:12:21;7.70;99.90
16966;DHT22;8599;47.852;12.070;2024-03-23T15:14:48;7.60;99.90
16966;DHT22;8599;47.852;12.070;2024-03-23T15:17:14;7.30;99.90
16966;DHT22;8599;47.852;12.070;2024-03-23T15:19:41;6.70;99.90
16966;DHT22;8599;47.852;12.070;2024-03-23T15:22:08;6.40;99.90
16966;DHT22;8599;47.852;12.070;2024-03-23T15:24:35;6.10;99.90
16966;DHT22;8599;47.852;12.070;2024-03-23T15:27:02;5.80;99.90
16966;DHT22;8599;47.852;12.070;2024-03-23T15:29:30;5.70;99.90
16966;DHT22;8599;47.852;12.070;2024-03-23T15:31:56;5.40;99.90
16966;DHT22;8599;47.852;12.070;2024-03-23T15:34:23;5.20;99.90
16966;DHT22;8599;47.852;12.070;2024-03-23T15:36:49;5.10;99.90
16966;DHT22;8599;47.852;12.070;2024-03-23T15:39:17;5.00;99.90
16966;DHT22;8599;47.852;12.070;2024-03-23T15:41:44;4.90;99.90
16966;DHT22;8599;47.852;12.070;2024-03-23T15:44:11;5.10;99.90
16966;DHT22;8599;47.852;12.070;2024-03-23T15:46:38;5.00;99.90
16966;DHT22;8599;47.852;12.070;2024-03-23T15:49:05;5.20;99.90
16966;DHT22;8599;47.852;12.070;2024-03-23T15:51:31;5.20;99.90
16966;DHT22;8599;47.852;12.070;2024-03-23T15:54:00;5.30;99.90
16966;DHT22;8599;47.852;12.070;2024-03-23T15:56:26;5.30;99.90
16966;DHT22;8599;47.852;12.070;2024-03-23T15:58:53;5.50;99.90
16966;DHT22;8599;47.852;12.070;2024-03-23T16:01:19;5.60;99.90
16966;DHT22;8599;47.852;12.070;2024-03-23T16:03:47;5.80;99.90
16966;DHT22;8599;47.852;12.070;2024-03-23T16:06:13;5.70;99.90
16966;DHT22;8599;47.852;12.070;2024-03-23T16:08:40;5.70;99.90
16966;DHT22;8599;47.852;12.070;2024-03-23T16:11:07;5.60;99.90
16966;DHT22;8599;47.852;12.070;2024-03-23T16:13:36;5.60;99.90
16966;DHT22;8599;47.852;12.070;2024-03-23T16:16:02;5.70;99.90
16966;DHT22;8599;47.852;12.070;2024-03-23T16:18:32;5.70;99.90
16966;DHT22;8599;47.852;12.070;2024-03-23T16:21:01;5.80;99.90
16966;DHT22;8599;47.852;12.070;2024-03-23T16:23:28;5.80;99.90
16966;DHT22;8599;47.852;12.070;2024-03-23T16:25:55;5.90;99.90
16966;DHT22;8599;47.852;12.070;2024-03-23T16:28:26;6.00;99.90
16966;DHT22;8599;47.852;12.070;2024-03-23T16:30:57;6.00;99.90
16966;DHT22;8599;47.852;12.070;2024-03-23T16:33:24;6.10;99.90